Gubkin, Russia
Current Conditions -  °F | °C
As of 10:30 PM on Thursday 23 Oct 2014 (Local Time) from UUOB Reporting Station
Clear Clear  
Wind Chill: 12°   Ceiling: Unl
Heat Index: 23°   Visibility: 6mi
Dew Point: 18°   Wind: 11mph
Humidity: 80%   Direction: 40°NE
Pressure: 30.3"   Gusts: NA
Location:  51.28°N, 37.39°E
Report Text: UUOB 231930Z 04005MPS CAVOK M05/M08 Q1026 11090060 NOSIG
Loading
Personal Weather Stations






























Interactive Weather Map
Tropical Storm Tracking
New forecast layout! Learn more

10-Day Weather Forecast

Advertisements
Track Severe Weather on mobile